Time;durP1;ratioP1;P1;durP2;ratioP2;P2;SDS_P1;SDS_P2;PMS_P1;PMS_P2;Temp;Humidity;BMP_temperature;BMP_pressure;BME280_temperature;BME280_humidity;BME280_pressure;Samples;Min_cycle;Max_cycle;Signal;HPM_P1;HPM_P2
2023/08/05 00:01:16;;;;;;;4.47;2.05;;;;;;;;;;6274380;22;20332;-84
2023/08/05 00:03:42;;;;;;;4.18;1.98;;;;;;;;;;6274636;22;20007;-84
2023/08/05 00:06:10;;;;;;;3.25;1.85;;;;;;;;;;6301806;22;20011;-85
2023/08/05 00:08:36;;;;;;;1.88;1.60;;;;;;;;;;6302805;22;20046;-85
2023/08/05 00:11:02;;;;;;;6.25;1.73;;;;;;;;;;6302413;22;20394;-85
2023/08/05 00:13:34;;;;;;;2.42;1.88;;;;;;;;;;6302103;22;20774;-84
2023/08/05 00:16:00;;;;;;;2.33;1.85;;;;;;;;;;6302225;22;20014;-84
2023/08/05 00:18:26;;;;;;;2.35;1.63;;;;;;;;;;6274456;22;20082;-84
2023/08/05 00:20:52;;;;;;;3.25;1.67;;;;;;;;;;6274877;22;20018;-84
2023/08/05 00:23:19;;;;;;;3.40;1.35;;;;;;;;;;6301887;22;20336;-84
2023/08/05 00:25:45;;;;;;;2.88;1.70;;;;;;;;;;6302506;22;20050;-85
2023/08/05 00:28:11;;;;;;;2.28;1.83;;;;;;;;;;6273268;22;20015;-85
2023/08/05 00:30:37;;;;;;;5.70;2.00;;;;;;;;;;6303969;22;20008;-85
2023/08/05 00:33:03;;;;;;;3.30;2.03;;;;;;;;;;6276325;22;20021;-85
2023/08/05 00:35:29;;;;;;;2.50;1.90;;;;;;;;;;6277033;22;20023;-85
2023/08/05 00:37:55;;;;;;;3.42;1.75;;;;;;;;;;6303999;22;20007;-85
2023/08/05 00:40:21;;;;;;;2.20;2.00;;;;;;;;;;6304047;22;20065;-85
2023/08/05 00:42:47;;;;;;;3.30;2.10;;;;;;;;;;6304045;22;20034;-85
2023/08/05 00:45:13;;;;;;;2.75;1.77;;;;;;;;;;6275842;22;20023;-85
2023/08/05 00:47:39;;;;;;;3.08;2.08;;;;;;;;;;6304682;22;20069;-85
2023/08/05 00:50:06;;;;;;;2.33;1.75;;;;;;;;;;6303818;22;20022;-84
2023/08/05 00:52:32;;;;;;;4.43;1.90;;;;;;;;;;6304453;22;20098;-85
2023/08/05 00:54:58;;;;;;;3.70;2.05;;;;;;;;;;6303840;22;20090;-85
2023/08/05 00:57:25;;;;;;;3.20;1.58;;;;;;;;;;6275801;22;20475;-85
2023/08/05 00:59:51;;;;;;;2.30;1.88;;;;;;;;;;6304442;22;20075;-84
2023/08/05 01:02:17;;;;;;;2.63;1.92;;;;;;;;;;6303345;22;20047;-85
2023/08/05 01:04:43;;;;;;;3.28;2.83;;;;;;;;;;6303916;22;20102;-84
2023/08/05 01:07:09;;;;;;;3.67;2.13;;;;;;;;;;6275715;22;20019;-85
2023/08/05 01:09:35;;;;;;;2.33;2.03;;;;;;;;;;6304168;22;20011;-85
2023/08/05 01:12:02;;;;;;;5.57;2.70;;;;;;;;;;6275154;22;20399;-85
2023/08/05 01:14:28;;;;;;;2.15;1.88;;;;;;;;;;6276337;22;20028;-85
2023/08/05 01:16:55;;;;;;;3.15;2.00;;;;;;;;;;6303542;22;20012;-85
2023/08/05 01:19:21;;;;;;;4.13;2.40;;;;;;;;;;6304201;22;20011;-85
2023/08/05 01:22:06;;;;;;;12.50;3.17;;;;;;;;;;6304244;22;20011;-85
2023/08/05 01:24:35;;;;;;;3.35;1.90;;;;;;;;;;6276292;22;20015;-85
2023/08/05 01:27:01;;;;;;;2.50;1.92;;;;;;;;;;6302279;22;20015;-85
2023/08/05 01:29:27;;;;;;;2.47;1.83;;;;;;;;;;6304227;22;20359;-85
2023/08/05 01:31:54;;;;;;;2.30;1.65;;;;;;;;;;6304186;22;20331;-84
2023/08/05 01:34:20;;;;;;;4.50;2.30;;;;;;;;;;6303852;22;20050;-84
2023/08/05 01:36:46;;;;;;;4.28;2.08;;;;;;;;;;6304064;22;20018;-86
2023/08/05 01:39:12;;;;;;;2.22;2.03;;;;;;;;;;6275075;22;20337;-85
2023/08/05 01:41:38;;;;;;;2.78;2.05;;;;;;;;;;6275222;22;20022;-86
2023/08/05 01:44:04;;;;;;;4.95;2.17;;;;;;;;;;6303288;22;20007;-86
2023/08/05 01:46:30;;;;;;;2.83;2.05;;;;;;;;;;6275987;22;20043;-85
2023/08/05 01:48:56;;;;;;;4.82;2.28;;;;;;;;;;6303440;22;20324;-84
2023/08/05 01:51:22;;;;;;;4.53;2.17;;;;;;;;;;6303117;22;20046;-84
2023/08/05 01:53:48;;;;;;;3.35;1.98;;;;;;;;;;6276570;22;20015;-84
2023/08/05 01:56:14;;;;;;;3.88;1.65;;;;;;;;;;6302879;22;20722;-84
2023/08/05 01:58:40;;;;;;;3.08;2.33;;;;;;;;;;6304252;22;20019;-86
2023/08/05 02:01:06;;;;;;;4.05;2.00;;;;;;;;;;6303599;22;20041;-85
2023/08/05 02:03:32;;;;;;;3.42;2.30;;;;;;;;;;6303680;22;20015;-84
2023/08/05 02:05:58;;;;;;;4.18;2.00;;;;;;;;;;6275467;22;20019;-83
2023/08/05 02:08:24;;;;;;;3.00;2.03;;;;;;;;;;6275269;22;20026;-85
2023/08/05 02:10:50;;;;;;;2.85;1.92;;;;;;;;;;6275735;22;20011;-84
2023/08/05 02:13:16;;;;;;;3.58;2.40;;;;;;;;;;6303081;22;20082;-84
2023/08/05 02:15:42;;;;;;;3.53;1.95;;;;;;;;;;6276311;22;20053;-84
2023/08/05 02:18:08;;;;;;;3.70;2.20;;;;;;;;;;6302311;22;20119;-84
2023/08/05 02:20:35;;;;;;;3.65;1.52;;;;;;;;;;6303262;22;20019;-84
2023/08/05 02:23:01;;;;;;;4.53;2.45;;;;;;;;;;6302220;22;20010;-84
2023/08/05 02:25:27;;;;;;;3.90;2.28;;;;;;;;;;6301726;22;20023;-84
2023/08/05 02:27:53;;;;;;;3.17;2.38;;;;;;;;;;6302211;22;20015;-84
2023/08/05 02:30:19;;;;;;;3.35;1.75;;;;;;;;;;6275994;22;20019;-84
2023/08/05 02:32:45;;;;;;;2.10;1.42;;;;;;;;;;6276063;22;20015;-84
2023/08/05 02:35:11;;;;;;;3.70;2.03;;;;;;;;;;6274805;22;20091;-84
2023/08/05 02:37:37;;;;;;;2.45;1.90;;;;;;;;;;6302504;22;20018;-84
2023/08/05 02:40:03;;;;;;;3.80;2.30;;;;;;;;;;6302321;22;20577;-84
2023/08/05 02:42:29;;;;;;;3.05;1.88;;;;;;;;;;6302583;22;20026;-83
2023/08/05 02:44:55;;;;;;;3.88;2.42;;;;;;;;;;6300353;22;20512;-84
2023/08/05 02:47:21;;;;;;;2.92;2.08;;;;;;;;;;6303035;22;20086;-84
2023/08/05 02:49:47;;;;;;;3.58;2.33;;;;;;;;;;6303280;22;20272;-84
2023/08/05 02:52:13;;;;;;;2.60;1.90;;;;;;;;;;6273925;22;20050;-84
2023/08/05 02:54:39;;;;;;;3.67;2.30;;;;;;;;;;6303304;22;20016;-84
2023/08/05 02:57:05;;;;;;;3.85;2.00;;;;;;;;;;6275017;22;20428;-84
2023/08/05 02:59:31;;;;;;;4.00;2.10;;;;;;;;;;6275626;22;20015;-84
2023/08/05 03:01:57;;;;;;;3.33;2.10;;;;;;;;;;6302317;22;20012;-84
2023/08/05 03:04:23;;;;;;;2.90;2.15;;;;;;;;;;6275255;22;20348;-86
2023/08/05 03:06:49;;;;;;;4.88;2.80;;;;;;;;;;6302451;22;20019;-83
2023/08/05 03:09:15;;;;;;;3.38;1.92;;;;;;;;;;6302539;22;20015;-83
2023/08/05 03:11:41;;;;;;;2.83;1.90;;;;;;;;;;6275063;22;20014;-83
2023/08/05 03:14:07;;;;;;;2.42;1.90;;;;;;;;;;6301976;22;20313;-83
2023/08/05 03:16:33;;;;;;;2.65;1.63;;;;;;;;;;6303270;22;20018;-83
2023/08/05 03:18:59;;;;;;;2.38;1.77;;;;;;;;;;6302646;22;20007;-83
2023/08/05 03:21:25;;;;;;;2.65;2.00;;;;;;;;;;6301917;22;20014;-83
2023/08/05 03:23:51;;;;;;;2.83;2.03;;;;;;;;;;6302819;22;20061;-83
2023/08/05 03:26:17;;;;;;;2.65;1.80;;;;;;;;;;6302345;22;20328;-83
2023/08/05 03:28:43;;;;;;;2.85;2.20;;;;;;;;;;6302009;22;20015;-82
2023/08/05 03:31:09;;;;;;;6.10;2.42;;;;;;;;;;6301162;22;20023;-83
2023/08/05 03:33:35;;;;;;;3.35;1.75;;;;;;;;;;6303248;22;20018;-83
2023/08/05 03:36:01;;;;;;;4.07;2.15;;;;;;;;;;6301861;22;20008;-83
2023/08/05 03:38:27;;;;;;;5.38;2.90;;;;;;;;;;6302966;22;20426;-83
2023/08/05 03:40:53;;;;;;;2.67;2.47;;;;;;;;;;6274305;22;20023;-83
2023/08/05 03:43:19;;;;;;;3.35;1.95;;;;;;;;;;6275059;22;20015;-83
2023/08/05 03:45:51;;;;;;;2.97;2.20;;;;;;;;;;6275184;22;20018;-83
2023/08/05 03:48:18;;;;;;;2.63;2.00;;;;;;;;;;6302064;22;20026;-83
2023/08/05 03:50:44;;;;;;;4.72;2.05;;;;;;;;;;6301626;22;20440;-83
2023/08/05 03:53:10;;;;;;;2.53;2.08;;;;;;;;;;6301974;22;20011;-83
2023/08/05 03:55:36;;;;;;;1.98;1.42;;;;;;;;;;6302946;22;20015;-83
2023/08/05 03:58:02;;;;;;;3.65;2.05;;;;;;;;;;6274703;22;20070;-82
2023/08/05 04:00:28;;;;;;;3.65;2.30;;;;;;;;;;6274737;22;20045;-84
2023/08/05 04:02:54;;;;;;;3.63;2.75;;;;;;;;;;6302396;22;20058;-83
2023/08/05 04:05:20;;;;;;;3.13;2.53;;;;;;;;;;6302778;22;20022;-83
2023/08/05 04:07:47;;;;;;;3.83;2.70;;;;;;;;;;6304468;22;20019;-83
2023/08/05 04:10:13;;;;;;;2.65;2.03;;;;;;;;;;6303536;22;20015;-83
2023/08/05 04:12:39;;;;;;;4.43;2.58;;;;;;;;;;6305288;22;20094;-83
2023/08/05 04:15:07;;;;;;;5.28;2.55;;;;;;;;;;6275861;22;20016;-84
2023/08/05 04:17:33;;;;;;;5.53;2.88;;;;;;;;;;6276745;22;20102;-84
2023/08/05 04:20:00;;;;;;;4.97;2.35;;;;;;;;;;6275572;22;20057;-84
2023/08/05 04:22:27;;;;;;;5.22;2.38;;;;;;;;;;6276990;22;20069;-83
2023/08/05 04:24:53;;;;;;;2.78;2.35;;;;;;;;;;6304511;22;20047;-83
2023/08/05 04:27:21;;;;;;;4.20;2.65;;;;;;;;;;6276747;22;20023;-84
2023/08/05 04:29:48;;;;;;;4.20;2.58;;;;;;;;;;6304633;22;20015;-83
2023/08/05 04:32:14;;;;;;;5.40;2.55;;;;;;;;;;6304182;22;20019;-83
2023/08/05 04:34:40;;;;;;;3.85;2.78;;;;;;;;;;6303987;22;20015;-83
2023/08/05 04:37:19;;;;;;;4.53;2.75;;;;;;;;;;6304200;22;20007;-84
2023/08/05 04:39:45;;;;;;;3.90;2.22;;;;;;;;;;6276935;22;20023;-84
2023/08/05 04:42:12;;;;;;;3.33;2.20;;;;;;;;;;6303745;22;20079;-83
2023/08/05 04:44:41;;;;;;;3.45;2.42;;;;;;;;;;6303604;22;20037;-84
2023/08/05 04:47:08;;;;;;;4.55;2.47;;;;;;;;;;6301644;22;20015;-84
2023/08/05 04:49:34;;;;;;;3.97;2.65;;;;;;;;;;6303854;22;20068;-82
2023/08/05 04:52:02;;;;;;;3.65;2.40;;;;;;;;;;6303308;22;20388;-81
2023/08/05 04:54:28;;;;;;;4.72;2.67;;;;;;;;;;6275492;22;20015;-83
2023/08/05 04:56:54;;;;;;;3.38;2.28;;;;;;;;;;6276194;22;20088;-84
2023/08/05 04:59:20;;;;;;;4.25;2.38;;;;;;;;;;6275511;22;20015;-84
2023/08/05 05:01:46;;;;;;;5.47;2.25;;;;;;;;;;6275912;22;20774;-84
2023/08/05 05:04:12;;;;;;;7.70;2.45;;;;;;;;;;6302409;22;20015;-84
2023/08/05 05:06:38;;;;;;;7.00;2.85;;;;;;;;;;6304506;22;20018;-84
2023/08/05 05:09:04;;;;;;;3.17;2.28;;;;;;;;;;6275617;22;20031;-84
2023/08/05 05:11:30;;;;;;;3.65;2.30;;;;;;;;;;6303740;22;20060;-84
2023/08/05 05:13:57;;;;;;;3.28;2.03;;;;;;;;;;6275387;22;20428;-81
2023/08/05 05:16:23;;;;;;;4.53;2.50;;;;;;;;;;6302111;22;20007;-82
2023/08/05 05:18:49;;;;;;;5.30;2.78;;;;;;;;;;6303019;22;20317;-82
2023/08/05 05:21:15;;;;;;;5.22;2.92;;;;;;;;;;6303524;22;20041;-82
2023/08/05 05:23:41;;;;;;;3.97;2.50;;;;;;;;;;6304053;22;20011;-82
2023/08/05 05:26:07;;;;;;;5.82;2.95;;;;;;;;;;6303269;22;20108;-81
2023/08/05 05:28:33;;;;;;;4.13;2.63;;;;;;;;;;6303691;22;20012;-81
2023/08/05 05:31:03;;;;;;;3.95;2.90;;;;;;;;;;6302475;22;20015;-82
2023/08/05 05:33:29;;;;;;;4.38;2.40;;;;;;;;;;6302721;22;20069;-82
2023/08/05 05:35:55;;;;;;;2.75;2.20;;;;;;;;;;6302545;22;20333;-82
2023/08/05 05:38:21;;;;;;;4.70;2.38;;;;;;;;;;6274239;22;20019;-82
2023/08/05 05:40:47;;;;;;;4.07;2.05;;;;;;;;;;6303019;22;20011;-85
2023/08/05 05:43:13;;;;;;;3.30;2.30;;;;;;;;;;6302427;22;20096;-87
2023/08/05 05:45:40;;;;;;;4.38;2.20;;;;;;;;;;6273730;22;20383;-87
2023/08/05 05:48:06;;;;;;;4.63;2.70;;;;;;;;;;6275100;22;20086;-86
2023/08/05 05:50:32;;;;;;;3.33;2.50;;;;;;;;;;6303318;22;20011;-84
2023/08/05 05:52:58;;;;;;;3.40;2.40;;;;;;;;;;6275979;22;20015;-85
2023/08/05 05:55:24;;;;;;;4.45;2.00;;;;;;;;;;6275281;22;20019;-85
2023/08/05 05:57:50;;;;;;;3.95;2.28;;;;;;;;;;6301174;22;20011;-86
2023/08/05 06:00:16;;;;;;;3.30;1.80;;;;;;;;;;6301012;22;20018;-87
2023/08/05 06:02:42;;;;;;;3.65;2.08;;;;;;;;;;6301917;22;20022;-85
2023/08/05 06:05:08;;;;;;;6.78;2.85;;;;;;;;;;6301963;22;20019;-85
2023/08/05 06:07:34;;;;;;;3.50;2.10;;;;;;;;;;6274829;22;20018;-84
2023/08/05 06:10:01;;;;;;;3.13;2.00;;;;;;;;;;6303348;22;20038;-84
2023/08/05 06:12:32;;;;;;;4.35;2.65;;;;;;;;;;6303693;22;20012;-83
2023/08/05 06:14:59;;;;;;;4.57;2.45;;;;;;;;;;6301338;22;20046;-83
2023/08/05 06:17:25;;;;;;;4.00;2.50;;;;;;;;;;6275957;22;20012;-84
2023/08/05 06:19:51;;;;;;;2.90;2.05;;;;;;;;;;6300986;22;20340;-85
2023/08/05 06:22:17;;;;;;;4.85;2.42;;;;;;;;;;6303125;22;20022;-82
2023/08/05 06:24:43;;;;;;;4.05;2.17;;;;;;;;;;6303864;22;20019;-82
2023/08/05 06:27:09;;;;;;;3.33;2.65;;;;;;;;;;6302634;22;20016;-82
2023/08/05 06:29:35;;;;;;;3.10;1.85;;;;;;;;;;6275273;22;20052;-82
2023/08/05 06:32:01;;;;;;;3.55;1.88;;;;;;;;;;6275376;22;20432;-82
2023/08/05 06:34:27;;;;;;;5.28;2.03;;;;;;;;;;6303146;22;20428;-82
2023/08/05 06:36:53;;;;;;;3.17;2.10;;;;;;;;;;6303349;22;20064;-82
2023/08/05 06:39:19;;;;;;;2.35;1.65;;;;;;;;;;6302898;22;20042;-82
2023/08/05 06:41:46;;;;;;;3.35;1.70;;;;;;;;;;6303744;22;20015;-82
2023/08/05 06:44:12;;;;;;;2.70;1.70;;;;;;;;;;6301250;22;20319;-82
2023/08/05 06:46:39;;;;;;;2.15;1.45;;;;;;;;;;6302947;22;20107;-83
2023/08/05 06:49:05;;;;;;;2.63;1.80;;;;;;;;;;6302409;22;20011;-84
2023/08/05 06:51:32;;;;;;;2.13;1.92;;;;;;;;;;6303089;22;20023;-83
2023/08/05 06:53:58;;;;;;;4.97;2.00;;;;;;;;;;6302773;22;20016;-84
2023/08/05 06:56:24;;;;;;;2.17;1.63;;;;;;;;;;6272953;22;20030;-83
2023/08/05 06:58:50;;;;;;;2.97;1.85;;;;;;;;;;6272675;22;20011;-83
2023/08/05 07:01:16;;;;;;;2.20;2.00;;;;;;;;;;6248820;22;20026;-88
2023/08/05 07:03:44;;;;;;;2.80;1.70;;;;;;;;;;6276372;22;20309;-88
2023/08/05 07:06:10;;;;;;;3.88;1.85;;;;;;;;;;6300549;22;20011;-87
2023/08/05 07:08:36;;;;;;;3.05;1.88;;;;;;;;;;6303558;22;20090;-86
2023/08/05 07:11:02;;;;;;;5.05;2.00;;;;;;;;;;6303020;22;20078;-90
2023/08/05 07:13:28;;;;;;;2.10;1.75;;;;;;;;;;6301335;22;20117;-88
2023/08/05 07:16:01;;;;;;;2.58;1.95;;;;;;;;;;6300772;22;20430;-88
2023/08/05 07:18:27;;;;;;;4.30;1.73;;;;;;;;;;6298950;22;20015;-86
2023/08/05 07:20:53;;;;;;;2.50;1.50;;;;;;;;;;6273667;22;20025;-85
2023/08/05 07:23:20;;;;;;;4.07;2.38;;;;;;;;;;6301518;22;20034;-87
2023/08/05 07:25:46;;;;;;;3.53;1.88;;;;;;;;;;6303280;22;20011;-85
2023/08/05 07:28:12;;;;;;;4.55;1.80;;;;;;;;;;6298362;22;20069;-86
2023/08/05 07:30:39;;;;;;;2.92;1.75;;;;;;;;;;6302249;22;20090;-87
2023/08/05 07:33:07;;;;;;;2.00;1.55;;;;;;;;;;6300099;22;20647;-86
2023/08/05 07:35:33;;;;;;;2.88;1.73;;;;;;;;;;6302123;22;20039;-88
2023/08/05 07:38:03;;;;;;;4.15;1.52;;;;;;;;;;6301498;22;20309;-86
2023/08/05 07:40:30;;;;;;;;;;;;;;;;;;6273671;22;20015;-88
2023/08/05 07:42:56;;;;;;;3.25;1.52;;;;;;;;;;6301255;22;19915;-87
2023/08/05 07:45:22;;;;;;;3.00;1.67;;;;;;;;;;6302338;22;20015;-87
2023/08/05 07:47:48;;;;;;;4.00;2.22;;;;;;;;;;6274587;22;20011;-88
2023/08/05 07:50:16;;;;;;;4.05;1.48;;;;;;;;;;6300141;22;20038;-85
2023/08/05 07:52:43;;;;;;;3.15;2.17;;;;;;;;;;6299767;22;20152;-84
2023/08/05 07:55:09;;;;;;;2.72;1.60;;;;;;;;;;6301265;22;20021;-85
2023/08/05 07:57:35;;;;;;;4.07;1.77;;;;;;;;;;6301619;22;20019;-85
2023/08/05 08:00:01;;;;;;;3.30;1.70;;;;;;;;;;6301828;22;20057;-85
2023/08/05 08:02:27;;;;;;;2.83;1.55;;;;;;;;;;6273897;22;20015;-85
2023/08/05 08:04:54;;;;;;;4.40;1.60;;;;;;;;;;6302134;22;20444;-84
2023/08/05 08:07:21;;;;;;;2.92;1.60;;;;;;;;;;6301901;22;20063;-84
2023/08/05 08:09:47;;;;;;;3.42;1.50;;;;;;;;;;6302910;22;20091;-85
2023/08/05 08:12:13;;;;;;;2.33;1.60;;;;;;;;;;6273249;22;20025;-84
2023/08/05 08:14:39;;;;;;;4.35;1.77;;;;;;;;;;6275428;22;20427;-91
2023/08/05 08:17:05;;;;;;;2.92;1.85;;;;;;;;;;6301926;22;20022;-86
2023/08/05 08:19:31;;;;;;;3.42;1.50;;;;;;;;;;6303310;22;20016;-84
2023/08/05 08:21:57;;;;;;;3.58;1.60;;;;;;;;;;6271764;22;20505;-84
2023/08/05 08:24:23;;;;;;;2.63;1.60;;;;;;;;;;6272566;22;20027;-83
2023/08/05 08:26:49;;;;;;;2.70;1.45;;;;;;;;;;6298461;22;20112;-84
2023/08/05 08:29:15;;;;;;;1.88;1.45;;;;;;;;;;6299570;22;20026;-83
2023/08/05 08:31:41;;;;;;;2.17;1.58;;;;;;;;;;6300827;22;20012;-83
2023/08/05 08:34:07;;;;;;;2.50;1.30;;;;;;;;;;6299154;22;20022;-82
2023/08/05 08:36:34;;;;;;;1.90;1.50;;;;;;;;;;6272870;22;20026;-83
2023/08/05 08:39:00;;;;;;;3.45;1.65;;;;;;;;;;6272982;22;20015;-82
2023/08/05 08:41:26;;;;;;;4.07;1.35;;;;;;;;;;6300901;22;20019;-83
2023/08/05 08:43:52;;;;;;;3.55;1.50;;;;;;;;;;6302488;22;20015;-84
2023/08/05 08:46:19;;;;;;;4.40;1.65;;;;;;;;;;6300881;22;20046;-83
2023/08/05 08:48:46;;;;;;;3.53;1.58;;;;;;;;;;6301693;22;20046;-83
2023/08/05 08:51:12;;;;;;;2.63;1.50;;;;;;;;;;6302476;22;20082;-85
2023/08/05 08:53:38;;;;;;;2.42;1.42;;;;;;;;;;6304575;22;20320;-83
2023/08/05 08:56:04;;;;;;;4.03;1.42;;;;;;;;;;6274494;22;20025;-83
2023/08/05 08:58:30;;;;;;;1.95;1.42;;;;;;;;;;6303492;22;20102;-84
2023/08/05 09:00:57;;;;;;;2.70;1.48;;;;;;;;;;6303487;22;20074;-86
2023/08/05 09:03:25;;;;;;;1.50;1.38;;;;;;;;;;6303310;22;20020;-85
2023/08/05 09:05:54;;;;;;;2.35;1.30;;;;;;;;;;6303258;22;20042;-85
2023/08/05 09:08:20;;;;;;;2.85;1.60;;;;;;;;;;6276537;22;20043;-84
2023/08/05 09:10:46;;;;;;;3.90;1.65;;;;;;;;;;6303884;22;20015;-85
2023/08/05 09:13:17;;;;;;;2.30;1.33;;;;;;;;;;6303007;22;20341;-84
2023/08/05 09:15:43;;;;;;;1.88;1.30;;;;;;;;;;6301942;22;20011;-84
2023/08/05 09:18:09;;;;;;;2.17;1.52;;;;;;;;;;6303575;22;20790;-86
2023/08/05 09:20:36;;;;;;;3.17;1.50;;;;;;;;;;6277373;22;20082;-84
2023/08/05 09:23:03;;;;;;;1.48;1.38;;;;;;;;;;6276160;22;20311;-84
2023/08/05 09:25:30;;;;;;;2.45;1.50;;;;;;;;;;6303943;22;20094;-86
2023/08/05 09:27:57;;;;;;;2.67;1.20;;;;;;;;;;6272004;22;20023;-86
2023/08/05 09:30:23;;;;;;;1.40;1.30;;;;;;;;;;6301689;22;20023;-84
2023/08/05 09:32:50;;;;;;;2.13;1.10;;;;;;;;;;6303432;22;20086;-84
2023/08/05 09:35:17;;;;;;;1.30;1.17;;;;;;;;;;6301285;22;20026;-84
2023/08/05 09:37:46;;;;;;;2.35;1.35;;;;;;;;;;6302312;22;20079;-86
2023/08/05 09:40:36;;;;;;;2.55;1.30;;;;;;;;;;6301738;22;20023;-84
2023/08/05 09:43:07;;;;;;;1.92;1.17;;;;;;;;;;6302419;22;20069;-86
2023/08/05 09:45:33;;;;;;;2.42;1.30;;;;;;;;;;6303460;22;20505;-85
2023/08/05 09:48:10;;;;;;;1.80;1.20;;;;;;;;;;6303401;22;20007;-85
2023/08/05 09:50:37;;;;;;;2.38;1.40;;;;;;;;;;6274453;22;20041;-83
2023/08/05 09:53:06;;;;;;;1.75;1.40;;;;;;;;;;6272447;22;20246;-83
2023/08/05 09:55:33;;;;;;;2.70;1.75;;;;;;;;;;6302983;22;20015;-84
2023/08/05 09:57:59;;;;;;;1.45;1.30;;;;;;;;;;6275583;22;20022;-82
2023/08/05 10:00:27;;;;;;;4.10;1.30;;;;;;;;;;6302016;22;20026;-85
2023/08/05 10:02:53;;;;;;;2.25;1.38;;;;;;;;;;6301745;22;20019;-84
2023/08/05 10:05:24;;;;;;;3.13;1.20;;;;;;;;;;6301813;22;20054;-87
2023/08/05 10:07:53;;;;;;;1.83;1.30;;;;;;;;;;6299967;22;20015;-88
2023/08/05 10:10:22;;;;;;;2.13;1.02;;;;;;;;;;6302790;22;20022;-85
2023/08/05 10:13:01;;;;;;;1.50;1.30;;;;;;;;;;6303270;22;20141;-83
2023/08/05 10:15:29;;;;;;;1.73;1.23;;;;;;;;;;6302372;22;20015;-83
2023/08/05 10:17:56;;;;;;;1.38;1.23;;;;;;;;;;6302446;22;20042;-86
2023/08/05 10:20:22;;;;;;;2.75;1.13;;;;;;;;;;6299952;22;20019;-85
2023/08/05 10:23:01;;;;;;;3.30;1.20;;;;;;;;;;6273879;22;20030;-87
2023/08/05 10:25:40;;;;;;;1.20;1.00;;;;;;;;;;6302695;22;20047;-86
2023/08/05 10:28:07;;;;;;;2.00;1.40;;;;;;;;;;6302470;22;20011;-87
2023/08/05 10:30:41;;;;;;;3.05;1.30;;;;;;;;;;6303148;22;20022;-88
2023/08/05 10:33:07;;;;;;;3.10;1.48;;;;;;;;;;6300950;22;20065;-89
2023/08/05 10:35:39;;;;;;;2.58;1.75;;;;;;;;;;6275117;22;20030;-86
2023/08/05 10:38:07;;;;;;;1.95;1.52;;;;;;;;;;6273447;22;20015;-92
2023/08/05 10:40:52;;;;;;;2.90;1.60;;;;;;;;;;6302225;22;20424;-86
2023/08/05 10:43:30;;;;;;;2.95;1.60;;;;;;;;;;6300864;22;20039;-85
2023/08/05 10:45:56;;;;;;;2.00;1.30;;;;;;;;;;6301786;22;20015;-84
2023/08/05 10:48:27;;;;;;;1.48;1.38;;;;;;;;;;6300539;22;20024;-85
2023/08/05 10:50:53;;;;;;;3.50;1.90;;;;;;;;;;6274390;22;20015;-87
2023/08/05 10:53:21;;;;;;;2.35;1.65;;;;;;;;;;6272886;22;20329;-85
2023/08/05 10:55:48;;;;;;;2.40;1.95;;;;;;;;;;6302074;22;20086;-84
2023/08/05 10:58:15;;;;;;;2.80;2.00;;;;;;;;;;6273699;22;20058;-85
2023/08/05 11:00:42;;;;;;;2.58;1.88;;;;;;;;;;6276000;22;20014;-85
2023/08/05 11:03:27;;;;;;;2.20;1.60;;;;;;;;;;6302495;22;20007;-85
2023/08/05 11:05:54;;;;;;;3.10;1.88;;;;;;;;;;6274845;22;20357;-84
2023/08/05 11:08:21;;;;;;;2.33;1.60;;;;;;;;;;6300016;22;20026;-85
2023/08/05 11:10:48;;;;;;;2.28;1.55;;;;;;;;;;6301695;22;20011;-85
2023/08/05 11:13:15;;;;;;;2.33;1.63;;;;;;;;;;6301915;22;20019;-83
2023/08/05 11:15:41;;;;;;;1.90;1.52;;;;;;;;;;6275570;22;20011;-84
2023/08/05 11:18:07;;;;;;;2.38;1.88;;;;;;;;;;6302313;22;20022;-85
2023/08/05 11:20:34;;;;;;;2.83;2.38;;;;;;;;;;6301910;22;20041;-83
2023/08/05 11:23:00;;;;;;;3.67;2.45;;;;;;;;;;6301979;22;20015;-87
2023/08/05 11:25:26;;;;;;;2.80;2.60;;;;;;;;;;6300000;22;20054;-84
2023/08/05 11:27:53;;;;;;;4.43;2.63;;;;;;;;;;6301564;22;20038;-83
2023/08/05 11:30:20;;;;;;;3.17;2.70;;;;;;;;;;6301337;22;20007;-89
2023/08/05 11:32:50;;;;;;;4.45;2.58;;;;;;;;;;6302966;22;20011;-89
2023/08/05 11:35:16;;;;;;;3.25;2.85;;;;;;;;;;6301106;22;20336;-89
2023/08/05 11:37:42;;;;;;;4.57;3.30;;;;;;;;;;6302921;22;20057;-89
2023/08/05 11:40:08;;;;;;;5.40;3.70;;;;;;;;;;6300972;22;20375;-88
2023/08/05 11:42:36;;;;;;;4.13;3.20;;;;;;;;;;6302789;22;20015;-88
2023/08/05 11:45:02;;;;;;;4.72;3.83;;;;;;;;;;6301096;22;20497;-87
2023/08/05 11:47:29;;;;;;;5.57;4.13;;;;;;;;;;6302739;22;20224;-88
2023/08/05 11:49:56;;;;;;;4.38;3.70;;;;;;;;;;6300830;22;20022;-90
2023/08/05 11:52:22;;;;;;;4.53;3.63;;;;;;;;;;6302109;22;20011;-90
2023/08/05 11:54:58;;;;;;;5.40;3.47;;;;;;;;;;6301608;22;20042;-90
2023/08/05 11:57:24;;;;;;;;;;;;;;;;;;6308467;22;20022;-89
2023/08/05 11:59:51;;;;;;;3.85;2.75;;;;;;;;;;6303519;22;19914;-89
2023/08/05 12:02:19;;;;;;;5.68;3.40;;;;;;;;;;6302179;22;20489;-88
2023/08/05 12:04:45;;;;;;;5.45;3.88;;;;;;;;;;6302335;22;20309;-89
2023/08/05 12:07:13;;;;;;;5.30;4.18;;;;;;;;;;6301922;22;20011;-89
2023/08/05 12:09:39;;;;;;;6.25;4.25;;;;;;;;;;6302833;22;20018;-89
2023/08/05 12:12:05;;;;;;;6.00;5.00;;;;;;;;;;6301909;22;20041;-89
2023/08/05 12:14:32;;;;;;;7.93;5.55;;;;;;;;;;6274994;22;20077;-89
2023/08/05 12:16:59;;;;;;;6.90;5.53;;;;;;;;;;6302065;22;20018;-90
2023/08/05 12:19:26;;;;;;;7.22;5.05;;;;;;;;;;6302220;22;20007;-89
2023/08/05 12:21:53;;;;;;;7.35;5.65;;;;;;;;;;6275545;22;20011;-89
2023/08/05 12:24:19;;;;;;;6.63;5.53;;;;;;;;;;6302383;22;20022;-88
2023/08/05 12:26:45;;;;;;;9.13;5.70;;;;;;;;;;6304491;22;20011;-90
2023/08/05 12:29:11;;;;;;;7.55;6.22;;;;;;;;;;6303623;22;20016;-88
2023/08/05 12:31:37;;;;;;;8.75;7.28;;;;;;;;;;6304087;22;20388;-89
2023/08/05 12:34:03;;;;;;;9.13;7.65;;;;;;;;;;6276217;22;20082;-89
2023/08/05 12:36:29;;;;;;;8.32;7.07;;;;;;;;;;6276733;22;20043;-88
2023/08/05 12:38:56;;;;;;;8.50;6.90;;;;;;;;;;6303494;22;20018;-89
2023/08/05 12:41:22;;;;;;;9.55;6.90;;;;;;;;;;6304391;22;20023;-89
2023/08/05 12:43:48;;;;;;;9.38;7.15;;;;;;;;;;6276043;22;20022;-87
2023/08/05 12:46:14;;;;;;;7.78;6.45;;;;;;;;;;6303002;22;20412;-88
2023/08/05 12:48:40;;;;;;;9.05;7.47;;;;;;;;;;6276606;22;20087;-89
2023/08/05 12:51:06;;;;;;;8.75;6.60;;;;;;;;;;6276944;22;20043;-89
2023/08/05 12:53:32;;;;;;;8.20;7.10;;;;;;;;;;6304052;22;20011;-89
2023/08/05 12:55:58;;;;;;;9.13;6.97;;;;;;;;;;6303054;22;20064;-89
2023/08/05 12:58:24;;;;;;;7.72;5.82;;;;;;;;;;6304220;22;20011;-88
2023/08/05 13:00:50;;;;;;;8.30;6.80;;;;;;;;;;6303709;22;20324;-88
2023/08/05 13:03:16;;;;;;;7.53;6.15;;;;;;;;;;6303649;22;20034;-88
2023/08/05 13:05:42;;;;;;;7.80;6.60;;;;;;;;;;6277161;22;20349;-86
2023/08/05 13:08:08;;;;;;;6.95;5.78;;;;;;;;;;6303141;22;20018;-88
2023/08/05 13:10:35;;;;;;;6.40;5.45;;;;;;;;;;6304417;22;20056;-89
2023/08/05 13:13:01;;;;;;;6.35;5.35;;;;;;;;;;6276619;22;20038;-89
2023/08/05 13:15:28;;;;;;;6.43;5.00;;;;;;;;;;6303443;22;20023;-92
2023/08/05 13:17:53;;;;;;;6.97;5.22;;;;;;;;;;6276531;22;20069;-87
2023/08/05 13:20:19;;;;;;;6.07;5.43;;;;;;;;;;6303640;22;20008;-89
2023/08/05 13:22:45;;;;;;;6.82;5.30;;;;;;;;;;6304424;22;20015;-90
2023/08/05 13:25:11;;;;;;;6.22;5.30;;;;;;;;;;6302505;22;20341;-88
2023/08/05 13:27:38;;;;;;;5.72;4.57;;;;;;;;;;6304608;22;20167;-89
2023/08/05 13:30:04;;;;;;;7.20;5.07;;;;;;;;;;6274508;22;20479;-89
2023/08/05 13:32:30;;;;;;;7.13;5.55;;;;;;;;;;6276346;22;20060;-89
2023/08/05 13:34:56;;;;;;;6.60;4.97;;;;;;;;;;6303355;22;20373;-89
2023/08/05 13:37:22;;;;;;;7.10;4.82;;;;;;;;;;6303379;22;20080;-90
2023/08/05 13:39:49;;;;;;;5.55;4.72;;;;;;;;;;6303488;22;20057;-90
2023/08/05 13:42:15;;;;;;;6.13;5.38;;;;;;;;;;6303227;22;20019;-87
2023/08/05 13:44:42;;;;;;;7.93;5.50;;;;;;;;;;6303681;22;20336;-89
2023/08/05 13:47:08;;;;;;;7.78;5.22;;;;;;;;;;6275376;22;20015;-88
2023/08/05 13:49:34;;;;;;;7.78;5.47;;;;;;;;;;6304245;22;20022;-88
2023/08/05 13:52:00;;;;;;;8.52;5.25;;;;;;;;;;6303559;22;20011;-87
2023/08/05 13:54:26;;;;;;;7.88;6.05;;;;;;;;;;6303635;22;20331;-88
2023/08/05 13:56:52;;;;;;;6.57;5.72;;;;;;;;;;6304021;22;20015;-88
2023/08/05 13:59:18;;;;;;;6.80;5.70;;;;;;;;;;6303688;22;20336;-88
2023/08/05 14:01:45;;;;;;;8.52;5.68;;;;;;;;;;6304368;22;20014;-88
2023/08/05 14:04:11;;;;;;;8.30;5.75;;;;;;;;;;6303085;22;20020;-88
2023/08/05 14:06:37;;;;;;;7.00;5.80;;;;;;;;;;6304285;22;20011;-87
2023/08/05 14:09:07;;;;;;;6.15;5.15;;;;;;;;;;6276134;22;20047;-88
2023/08/05 14:11:33;;;;;;;7.43;5.55;;;;;;;;;;6275700;22;20042;-88
2023/08/05 14:13:59;;;;;;;7.50;5.78;;;;;;;;;;6274826;22;20050;-87
2023/08/05 14:16:25;;;;;;;6.88;5.35;;;;;;;;;;6303313;22;20019;-86
2023/08/05 14:18:51;;;;;;;6.18;4.95;;;;;;;;;;6275660;22;20023;-87
2023/08/05 14:21:17;;;;;;;8.23;6.55;;;;;;;;;;6302616;22;20436;-87
2023/08/05 14:23:43;;;;;;;7.50;6.13;;;;;;;;;;6276424;22;20336;-86
2023/08/05 14:26:09;;;;;;;3.08;2.15;;;;;;;;;;6274867;22;20019;-86
2023/08/05 14:28:35;;;;;;;2.40;1.38;;;;;;;;;;6303034;22;20091;-86
2023/08/05 14:31:07;;;;;;;2.05;1.30;;;;;;;;;;6276174;22;20015;-91
2023/08/05 14:33:34;;;;;;;2.20;1.35;;;;;;;;;;6306131;22;20011;-94
2023/08/05 14:36:00;;;;;;;2.50;1.55;;;;;;;;;;6303381;22;20041;-88
2023/08/05 14:38:26;;;;;;;2.35;1.67;;;;;;;;;;6303562;22;20011;-88
2023/08/05 14:40:52;;;;;;;3.05;1.25;;;;;;;;;;6301934;22;20018;-88